sensor_id;sensor_type;location;lat;lon;timestamp;P1;durP1;ratioP1;P2;durP2;ratioP2
58820;SDS011;70670;52.476;13.334;2024-03-23T00:56:13;34.88;;;3.75;;
58820;SDS011;70670;52.476;13.334;2024-03-23T00:58:39;22.85;;;3.92;;
58820;SDS011;70670;52.476;13.334;2024-03-23T01:01:05;32.85;;;4.80;;
58820;SDS011;70670;52.476;13.334;2024-03-23T01:03:30;33.28;;;4.80;;
58820;SDS011;70670;52.476;13.334;2024-03-23T01:06:02;33.08;;;4.18;;
58820;SDS011;70670;52.476;13.334;2024-03-23T01:08:29;25.95;;;6.18;;
58820;SDS011;70670;52.476;13.334;2024-03-23T01:10:58;41.15;;;5.15;;
58820;SDS011;70670;52.476;13.334;2024-03-23T01:13:25;25.73;;;4.05;;
58820;SDS011;70670;52.476;13.334;2024-03-23T01:15:51;36.17;;;4.68;;
58820;SDS011;70670;52.476;13.334;2024-03-23T01:18:18;33.63;;;4.95;;
58820;SDS011;70670;52.476;13.334;2024-03-23T01:20:44;28.98;;;4.65;;
58820;SDS011;70670;52.476;13.334;2024-03-23T01:23:10;29.23;;;4.30;;
58820;SDS011;70670;52.476;13.334;2024-03-23T01:25:36;31.08;;;4.22;;
58820;SDS011;70670;52.476;13.334;2024-03-23T01:28:02;28.95;;;4.57;;
58820;SDS011;70670;52.476;13.334;2024-03-23T01:30:27;34.85;;;4.88;;
58820;SDS011;70670;52.476;13.334;2024-03-23T01:32:53;32.42;;;4.13;;
58820;SDS011;70670;52.476;13.334;2024-03-23T01:35:18;31.08;;;4.53;;
58820;SDS011;70670;52.476;13.334;2024-03-23T01:37:45;31.50;;;3.97;;
58820;SDS011;70670;52.476;13.334;2024-03-23T01:40:10;22.77;;;4.13;;
58820;SDS011;70670;52.476;13.334;2024-03-23T01:42:39;29.27;;;4.65;;
58820;SDS011;70670;52.476;13.334;2024-03-23T01:45:06;27.42;;;4.03;;
58820;SDS011;70670;52.476;13.334;2024-03-23T01:47:33;38.47;;;5.15;;
58820;SDS011;70670;52.476;13.334;2024-03-23T01:49:59;37.78;;;5.85;;
58820;SDS011;70670;52.476;13.334;2024-03-23T01:52:25;38.15;;;4.63;;
58820;SDS011;70670;52.476;13.334;2024-03-23T01:54:52;31.02;;;3.78;;
58820;SDS011;70670;52.476;13.334;2024-03-23T01:57:19;23.92;;;4.38;;
58820;SDS011;70670;52.476;13.334;2024-03-23T01:59:46;32.05;;;4.47;;
58820;SDS011;70670;52.476;13.334;2024-03-23T02:02:12;22.00;;;4.00;;
58820;SDS011;70670;52.476;13.334;2024-03-23T02:04:38;41.72;;;6.10;;
58820;SDS011;70670;52.476;13.334;2024-03-23T02:07:04;37.08;;;5.40;;
58820;SDS011;70670;52.476;13.334;2024-03-23T02:09:32;32.40;;;4.45;;
58820;SDS011;70670;52.476;13.334;2024-03-23T02:11:58;26.55;;;3.80;;
58820;SDS011;70670;52.476;13.334;2024-03-23T02:14:24;36.40;;;4.93;;
58820;SDS011;70670;52.476;13.334;2024-03-23T02:16:49;28.33;;;3.72;;
58820;SDS011;70670;52.476;13.334;2024-03-23T02:19:15;33.30;;;4.40;;
58820;SDS011;70670;52.476;13.334;2024-03-23T02:21:41;31.73;;;3.78;;
58820;SDS011;70670;52.476;13.334;2024-03-23T02:24:06;34.95;;;4.28;;
58820;SDS011;70670;52.476;13.334;2024-03-23T02:26:32;29.63;;;4.25;;
58820;SDS011;70670;52.476;13.334;2024-03-23T02:28:57;33.30;;;4.22;;
58820;SDS011;70670;52.476;13.334;2024-03-23T02:31:23;31.48;;;4.68;;
58820;SDS011;70670;52.476;13.334;2024-03-23T02:33:48;26.05;;;4.40;;
58820;SDS011;70670;52.476;13.334;2024-03-23T02:36:14;38.35;;;4.72;;
58820;SDS011;70670;52.476;13.334;2024-03-23T02:38:40;28.02;;;4.13;;
58820;SDS011;70670;52.476;13.334;2024-03-23T02:41:05;29.88;;;5.15;;
58820;SDS011;70670;52.476;13.334;2024-03-23T02:43:31;32.45;;;5.22;;
58820;SDS011;70670;52.476;13.334;2024-03-23T02:45:57;30.65;;;4.57;;
58820;SDS011;70670;52.476;13.334;2024-03-23T02:48:22;28.85;;;4.70;;
58820;SDS011;70670;52.476;13.334;2024-03-23T02:50:49;22.35;;;4.28;;
58820;SDS011;70670;52.476;13.334;2024-03-23T02:53:14;29.52;;;5.68;;
58820;SDS011;70670;52.476;13.334;2024-03-23T02:55:40;29.25;;;4.57;;
58820;SDS011;70670;52.476;13.334;2024-03-23T02:58:06;26.30;;;5.32;;
58820;SDS011;70670;52.476;13.334;2024-03-23T03:00:31;33.55;;;6.07;;
58820;SDS011;70670;52.476;13.334;2024-03-23T03:02:57;24.45;;;3.97;;
58820;SDS011;70670;52.476;13.334;2024-03-23T03:05:23;34.58;;;4.85;;
58820;SDS011;70670;52.476;13.334;2024-03-23T03:07:48;33.92;;;5.03;;
58820;SDS011;70670;52.476;13.334;2024-03-23T03:10:14;34.53;;;4.50;;
58820;SDS011;70670;52.476;13.334;2024-03-23T03:12:39;23.02;;;3.72;;
58820;SDS011;70670;52.476;13.334;2024-03-23T03:15:06;31.83;;;4.63;;
58820;SDS011;70670;52.476;13.334;2024-03-23T03:17:33;34.13;;;4.70;;
58820;SDS011;70670;52.476;13.334;2024-03-23T03:19:58;33.53;;;4.55;;
58820;SDS011;70670;52.476;13.334;2024-03-23T03:22:24;26.98;;;4.65;;
58820;SDS011;70670;52.476;13.334;2024-03-23T03:24:50;30.60;;;4.45;;
58820;SDS011;70670;52.476;13.334;2024-03-23T03:27:16;35.58;;;4.82;;
58820;SDS011;70670;52.476;13.334;2024-03-23T03:29:42;28.83;;;4.53;;
58820;SDS011;70670;52.476;13.334;2024-03-23T03:32:07;30.35;;;4.60;;
58820;SDS011;70670;52.476;13.334;2024-03-23T03:34:33;34.03;;;4.97;;
58820;SDS011;70670;52.476;13.334;2024-03-23T03:36:58;33.40;;;4.43;;
58820;SDS011;70670;52.476;13.334;2024-03-23T03:39:25;30.60;;;4.72;;
58820;SDS011;70670;52.476;13.334;2024-03-23T03:41:50;30.90;;;4.68;;
58820;SDS011;70670;52.476;13.334;2024-03-23T03:44:16;30.23;;;4.57;;
58820;SDS011;70670;52.476;13.334;2024-03-23T03:46:42;22.70;;;3.40;;
58820;SDS011;70670;52.476;13.334;2024-03-23T03:49:08;28.08;;;5.35;;
58820;SDS011;70670;52.476;13.334;2024-03-23T03:51:34;31.33;;;3.90;;
58820;SDS011;70670;52.476;13.334;2024-03-23T03:53:59;31.48;;;4.50;;
58820;SDS011;70670;52.476;13.334;2024-03-23T03:56:25;33.97;;;5.15;;
58820;SDS011;70670;52.476;13.334;2024-03-23T03:58:51;24.83;;;4.30;;
58820;SDS011;70670;52.476;13.334;2024-03-23T04:01:16;24.85;;;4.20;;
58820;SDS011;70670;52.476;13.334;2024-03-23T04:03:43;28.27;;;5.38;;
58820;SDS011;70670;52.476;13.334;2024-03-23T04:06:09;35.03;;;4.78;;
58820;SDS011;70670;52.476;13.334;2024-03-23T04:08:35;23.00;;;3.60;;
58820;SDS011;70670;52.476;13.334;2024-03-23T04:11:00;32.03;;;4.13;;
58820;SDS011;70670;52.476;13.334;2024-03-23T04:13:27;20.92;;;3.70;;
58820;SDS011;70670;52.476;13.334;2024-03-23T04:15:55;30.63;;;3.88;;
58820;SDS011;70670;52.476;13.334;2024-03-23T04:20:51;25.08;;;3.60;;
58820;SDS011;70670;52.476;13.334;2024-03-23T04:23:17;17.63;;;3.50;;
58820;SDS011;70670;52.476;13.334;2024-03-23T04:25:42;23.50;;;4.63;;
58820;SDS011;70670;52.476;13.334;2024-03-23T04:28:08;25.33;;;3.05;;
58820;SDS011;70670;52.476;13.334;2024-03-23T04:30:34;22.95;;;3.63;;
58820;SDS011;70670;52.476;13.334;2024-03-23T04:32:59;17.75;;;3.08;;
58820;SDS011;70670;52.476;13.334;2024-03-23T04:35:26;23.92;;;4.28;;
58820;SDS011;70670;52.476;13.334;2024-03-23T04:37:52;20.27;;;3.33;;
58820;SDS011;70670;52.476;13.334;2024-03-23T04:40:19;20.33;;;4.05;;
58820;SDS011;70670;52.476;13.334;2024-03-23T04:42:44;23.05;;;3.10;;
58820;SDS011;70670;52.476;13.334;2024-03-23T04:45:10;21.83;;;3.88;;
58820;SDS011;70670;52.476;13.334;2024-03-23T04:47:36;27.38;;;2.95;;
58820;SDS011;70670;52.476;13.334;2024-03-23T04:50:03;16.48;;;2.78;;
58820;SDS011;70670;52.476;13.334;2024-03-23T04:52:29;19.25;;;4.00;;
58820;SDS011;70670;52.476;13.334;2024-03-23T04:54:55;17.95;;;3.20;;
58820;SDS011;70670;52.476;13.334;2024-03-23T04:57:21;18.92;;;2.50;;
58820;SDS011;70670;52.476;13.334;2024-03-23T04:59:46;26.10;;;2.85;;
58820;SDS011;70670;52.476;13.334;2024-03-23T05:02:12;22.20;;;3.00;;
58820;SDS011;70670;52.476;13.334;2024-03-23T05:04:38;22.05;;;3.08;;
58820;SDS011;70670;52.476;13.334;2024-03-23T05:07:06;18.80;;;2.88;;
58820;SDS011;70670;52.476;13.334;2024-03-23T05:09:31;22.58;;;3.47;;
58820;SDS011;70670;52.476;13.334;2024-03-23T05:12:01;18.50;;;3.03;;
58820;SDS011;70670;52.476;13.334;2024-03-23T05:14:26;15.43;;;2.92;;
58820;SDS011;70670;52.476;13.334;2024-03-23T05:16:52;24.63;;;2.70;;
58820;SDS011;70670;52.476;13.334;2024-03-23T05:19:18;19.05;;;2.60;;
58820;SDS011;70670;52.476;13.334;2024-03-23T05:21:44;16.85;;;2.97;;
58820;SDS011;70670;52.476;13.334;2024-03-23T05:24:09;20.50;;;3.35;;
58820;SDS011;70670;52.476;13.334;2024-03-23T05:26:35;22.60;;;3.10;;
58820;SDS011;70670;52.476;13.334;2024-03-23T05:29:01;19.35;;;2.97;;
58820;SDS011;70670;52.476;13.334;2024-03-23T05:31:28;27.92;;;3.85;;
58820;SDS011;70670;52.476;13.334;2024-03-23T05:33:55;18.10;;;3.00;;
58820;SDS011;70670;52.476;13.334;2024-03-23T05:36:21;11.82;;;3.15;;
58820;SDS011;70670;52.476;13.334;2024-03-23T05:38:47;18.38;;;2.80;;
58820;SDS011;70670;52.476;13.334;2024-03-23T05:41:13;15.30;;;2.47;;
58820;SDS011;70670;52.476;13.334;2024-03-23T05:43:38;19.00;;;2.40;;
58820;SDS011;70670;52.476;13.334;2024-03-23T05:46:04;17.98;;;3.00;;
58820;SDS011;70670;52.476;13.334;2024-03-23T05:50:59;20.55;;;2.95;;
58820;SDS011;70670;52.476;13.334;2024-03-23T05:53:25;17.85;;;2.70;;
58820;SDS011;70670;52.476;13.334;2024-03-23T05:55:51;13.65;;;2.58;;
58820;SDS011;70670;52.476;13.334;2024-03-23T05:58:24;20.08;;;3.47;;
58820;SDS011;70670;52.476;13.334;2024-03-23T06:00:56;20.23;;;3.33;;
58820;SDS011;70670;52.476;13.334;2024-03-23T06:03:22;18.70;;;3.55;;
58820;SDS011;70670;52.476;13.334;2024-03-23T06:05:48;23.65;;;3.13;;
58820;SDS011;70670;52.476;13.334;2024-03-23T06:08:13;14.43;;;3.13;;
58820;SDS011;70670;52.476;13.334;2024-03-23T06:10:40;26.25;;;3.50;;
58820;SDS011;70670;52.476;13.334;2024-03-23T06:13:06;16.70;;;3.20;;
58820;SDS011;70670;52.476;13.334;2024-03-23T06:15:31;29.83;;;3.85;;
58820;SDS011;70670;52.476;13.334;2024-03-23T06:17:57;21.83;;;3.65;;
58820;SDS011;70670;52.476;13.334;2024-03-23T06:20:24;25.75;;;4.30;;
58820;SDS011;70670;52.476;13.334;2024-03-23T06:22:49;23.33;;;3.20;;
58820;SDS011;70670;52.476;13.334;2024-03-23T06:25:15;27.13;;;3.70;;
58820;SDS011;70670;52.476;13.334;2024-03-23T06:27:40;21.77;;;4.32;;
58820;SDS011;70670;52.476;13.334;2024-03-23T06:30:06;19.35;;;4.20;;
58820;SDS011;70670;52.476;13.334;2024-03-23T06:32:32;19.75;;;3.67;;
58820;SDS011;70670;52.476;13.334;2024-03-23T06:34:58;14.52;;;3.80;;
58820;SDS011;70670;52.476;13.334;2024-03-23T06:37:23;21.25;;;3.13;;
58820;SDS011;70670;52.476;13.334;2024-03-23T06:39:49;19.40;;;3.72;;
58820;SDS011;70670;52.476;13.334;2024-03-23T06:42:14;14.48;;;3.70;;
58820;SDS011;70670;52.476;13.334;2024-03-23T06:44:40;11.55;;;4.13;;
58820;SDS011;70670;52.476;13.334;2024-03-23T06:47:06;22.50;;;5.30;;
58820;SDS011;70670;52.476;13.334;2024-03-23T06:49:31;22.65;;;5.82;;
58820;SDS011;70670;52.476;13.334;2024-03-23T06:51:57;21.38;;;4.65;;
58820;SDS011;70670;52.476;13.334;2024-03-23T06:54:24;23.25;;;4.45;;
58820;SDS011;70670;52.476;13.334;2024-03-23T06:56:49;21.48;;;4.28;;
58820;SDS011;70670;52.476;13.334;2024-03-23T06:59:15;19.90;;;4.10;;
58820;SDS011;70670;52.476;13.334;2024-03-23T07:01:40;21.60;;;4.78;;
58820;SDS011;70670;52.476;13.334;2024-03-23T07:04:07;20.75;;;4.05;;
58820;SDS011;70670;52.476;13.334;2024-03-23T07:06:33;16.85;;;3.63;;
58820;SDS011;70670;52.476;13.334;2024-03-23T07:08:59;14.07;;;2.65;;
58820;SDS011;70670;52.476;13.334;2024-03-23T07:11:24;19.45;;;3.22;;
58820;SDS011;70670;52.476;13.334;2024-03-23T07:13:50;12.70;;;3.28;;
58820;SDS011;70670;52.476;13.334;2024-03-23T07:16:17;17.85;;;3.35;;
58820;SDS011;70670;52.476;13.334;2024-03-23T07:18:43;19.40;;;3.55;;
58820;SDS011;70670;52.476;13.334;2024-03-23T07:21:09;20.52;;;3.80;;
58820;SDS011;70670;52.476;13.334;2024-03-23T07:23:35;12.30;;;2.90;;
58820;SDS011;70670;52.476;13.334;2024-03-23T07:26:01;17.95;;;3.63;;
58820;SDS011;70670;52.476;13.334;2024-03-23T07:28:34;21.48;;;3.75;;
58820;SDS011;70670;52.476;13.334;2024-03-23T07:31:07;16.25;;;3.53;;
58820;SDS011;70670;52.476;13.334;2024-03-23T07:33:34;24.23;;;3.90;;
58820;SDS011;70670;52.476;13.334;2024-03-23T07:36:00;16.95;;;4.10;;
58820;SDS011;70670;52.476;13.334;2024-03-23T07:38:27;15.13;;;3.00;;
58820;SDS011;70670;52.476;13.334;2024-03-23T07:43:49;15.15;;;2.97;;
58820;SDS011;70670;52.476;13.334;2024-03-23T07:46:15;13.15;;;2.88;;
58820;SDS011;70670;52.476;13.334;2024-03-23T07:48:41;16.48;;;3.53;;
58820;SDS011;70670;52.476;13.334;2024-03-23T07:51:10;18.30;;;3.28;;
58820;SDS011;70670;52.476;13.334;2024-03-23T07:53:44;15.57;;;2.50;;
58820;SDS011;70670;52.476;13.334;2024-03-23T07:56:11;16.05;;;3.10;;
58820;SDS011;70670;52.476;13.334;2024-03-23T07:58:38;13.35;;;2.85;;
58820;SDS011;70670;52.476;13.334;2024-03-23T08:01:13;21.67;;;3.45;;
58820;SDS011;70670;52.476;13.334;2024-03-23T08:03:40;21.55;;;3.97;;
58820;SDS011;70670;52.476;13.334;2024-03-23T08:06:13;18.77;;;3.22;;
58820;SDS011;70670;52.476;13.334;2024-03-23T08:08:41;11.73;;;3.50;;
58820;SDS011;70670;52.476;13.334;2024-03-23T08:11:07;18.52;;;3.50;;
58820;SDS011;70670;52.476;13.334;2024-03-23T08:13:33;23.33;;;3.97;;
58820;SDS011;70670;52.476;13.334;2024-03-23T08:16:00;17.60;;;3.42;;
58820;SDS011;70670;52.476;13.334;2024-03-23T08:18:27;23.48;;;3.60;;
58820;SDS011;70670;52.476;13.334;2024-03-23T08:20:56;14.60;;;3.50;;
58820;SDS011;70670;52.476;13.334;2024-03-23T08:23:29;16.42;;;2.95;;
58820;SDS011;70670;52.476;13.334;2024-03-23T08:26:00;13.98;;;2.97;;
58820;SDS011;70670;52.476;13.334;2024-03-23T08:28:27;12.52;;;2.58;;
58820;SDS011;70670;52.476;13.334;2024-03-23T08:30:53;13.05;;;3.38;;
58820;SDS011;70670;52.476;13.334;2024-03-23T08:33:20;13.35;;;3.58;;
58820;SDS011;70670;52.476;13.334;2024-03-23T08:35:55;16.00;;;3.67;;
58820;SDS011;70670;52.476;13.334;2024-03-23T08:38:22;16.92;;;3.05;;
58820;SDS011;70670;52.476;13.334;2024-03-23T08:40:47;13.70;;;3.08;;
58820;SDS011;70670;52.476;13.334;2024-03-23T08:43:13;9.85;;;3.28;;
58820;SDS011;70670;52.476;13.334;2024-03-23T08:45:39;16.85;;;2.78;;
58820;SDS011;70670;52.476;13.334;2024-03-23T08:48:05;18.52;;;3.10;;
58820;SDS011;70670;52.476;13.334;2024-03-23T08:50:30;18.85;;;3.22;;
58820;SDS011;70670;52.476;13.334;2024-03-23T08:52:56;22.42;;;3.45;;
58820;SDS011;70670;52.476;13.334;2024-03-23T08:55:21;16.42;;;3.67;;
58820;SDS011;70670;52.476;13.334;2024-03-23T08:57:47;19.25;;;3.72;;
58820;SDS011;70670;52.476;13.334;2024-03-23T09:00:13;14.35;;;3.20;;
58820;SDS011;70670;52.476;13.334;2024-03-23T09:02:39;15.43;;;2.83;;
58820;SDS011;70670;52.476;13.334;2024-03-23T09:05:05;16.55;;;2.92;;
58820;SDS011;70670;52.476;13.334;2024-03-23T09:07:31;10.93;;;3.30;;
58820;SDS011;70670;52.476;13.334;2024-03-23T09:09:57;16.85;;;3.95;;
58820;SDS011;70670;52.476;13.334;2024-03-23T09:12:22;6.57;;;2.78;;
58820;SDS011;70670;52.476;13.334;2024-03-23T09:14:49;12.68;;;1.83;;
58820;SDS011;70670;52.476;13.334;2024-03-23T09:17:15;5.93;;;1.52;;
58820;SDS011;70670;52.476;13.334;2024-03-23T09:19:40;7.80;;;2.13;;
58820;SDS011;70670;52.476;13.334;2024-03-23T09:22:06;5.18;;;1.70;;
58820;SDS011;70670;52.476;13.334;2024-03-23T09:24:32;11.55;;;2.03;;
58820;SDS011;70670;52.476;13.334;2024-03-23T09:26:58;9.77;;;2.40;;
58820;SDS011;70670;52.476;13.334;2024-03-23T09:29:23;6.45;;;2.05;;
58820;SDS011;70670;52.476;13.334;2024-03-23T09:31:49;16.20;;;2.92;;
58820;SDS011;70670;52.476;13.334;2024-03-23T09:34:14;12.38;;;2.70;;
58820;SDS011;70670;52.476;13.334;2024-03-23T09:36:40;11.43;;;2.75;;
58820;SDS011;70670;52.476;13.334;2024-03-23T09:39:06;13.63;;;3.15;;
58820;SDS011;70670;52.476;13.334;2024-03-23T09:41:35;12.85;;;2.50;;
58820;SDS011;70670;52.476;13.334;2024-03-23T09:44:01;16.02;;;2.25;;
58820;SDS011;70670;52.476;13.334;2024-03-23T09:46:27;16.58;;;2.30;;
58820;SDS011;70670;52.476;13.334;2024-03-23T09:48:59;18.73;;;2.88;;
58820;SDS011;70670;52.476;13.334;2024-03-23T09:51:25;16.50;;;2.40;;
58820;SDS011;70670;52.476;13.334;2024-03-23T09:53:52;12.00;;;2.42;;
58820;SDS011;70670;52.476;13.334;2024-03-23T09:56:18;16.95;;;2.97;;
58820;SDS011;70670;52.476;13.334;2024-03-23T09:58:44;15.30;;;2.45;;
58820;SDS011;70670;52.476;13.334;2024-03-23T10:01:09;17.42;;;3.00;;
58820;SDS011;70670;52.476;13.334;2024-03-23T10:03:45;13.80;;;2.83;;
58820;SDS011;70670;52.476;13.334;2024-03-23T10:06:15;13.40;;;3.03;;
58820;SDS011;70670;52.476;13.334;2024-03-23T10:08:47;12.95;;;3.42;;
58820;SDS011;70670;52.476;13.334;2024-03-23T10:11:13;20.63;;;4.05;;
58820;SDS011;70670;52.476;13.334;2024-03-23T10:13:43;17.60;;;3.85;;
58820;SDS011;70670;52.476;13.334;2024-03-23T10:16:11;18.02;;;3.28;;
58820;SDS011;70670;52.476;13.334;2024-03-23T10:18:37;18.23;;;3.40;;
58820;SDS011;70670;52.476;13.334;2024-03-23T10:23:32;12.90;;;2.67;;
58820;SDS011;70670;52.476;13.334;2024-03-23T10:26:18;14.88;;;2.80;;
58820;SDS011;70670;52.476;13.334;2024-03-23T10:28:53;13.77;;;2.83;;
58820;SDS011;70670;52.476;13.334;2024-03-23T10:31:20;14.40;;;3.25;;
58820;SDS011;70670;52.476;13.334;2024-03-23T10:33:47;15.25;;;3.58;;
58820;SDS011;70670;52.476;13.334;2024-03-23T10:36:14;19.75;;;3.55;;
58820;SDS011;70670;52.476;13.334;2024-03-23T10:38:43;25.05;;;3.53;;
58820;SDS011;70670;52.476;13.334;2024-03-23T10:41:10;16.75;;;3.90;;
58820;SDS011;70670;52.476;13.334;2024-03-23T10:43:36;15.57;;;4.10;;
58820;SDS011;70670;52.476;13.334;2024-03-23T10:46:03;16.77;;;4.53;;
58820;SDS011;70670;52.476;13.334;2024-03-23T10:48:28;18.15;;;4.30;;
58820;SDS011;70670;52.476;13.334;2024-03-23T10:50:54;25.13;;;4.00;;
58820;SDS011;70670;52.476;13.334;2024-03-23T10:53:21;18.45;;;3.53;;
58820;SDS011;70670;52.476;13.334;2024-03-23T10:55:52;17.02;;;4.38;;
58820;SDS011;70670;52.476;13.334;2024-03-23T10:58:21;17.55;;;4.50;;
58820;SDS011;70670;52.476;13.334;2024-03-23T11:00:52;15.70;;;3.00;;
58820;SDS011;70670;52.476;13.334;2024-03-23T11:03:31;21.08;;;4.22;;
58820;SDS011;70670;52.476;13.334;2024-03-23T11:05:59;13.75;;;3.67;;
58820;SDS011;70670;52.476;13.334;2024-03-23T11:11:18;9.93;;;2.70;;
58820;SDS011;70670;52.476;13.334;2024-03-23T11:13:47;15.77;;;3.33;;
58820;SDS011;70670;52.476;13.334;2024-03-23T11:16:14;8.70;;;2.92;;
58820;SDS011;70670;52.476;13.334;2024-03-23T11:18:41;16.77;;;2.80;;
58820;SDS011;70670;52.476;13.334;2024-03-23T11:21:08;14.02;;;3.10;;
58820;SDS011;70670;52.476;13.334;2024-03-23T11:23:35;18.00;;;4.05;;
58820;SDS011;70670;52.476;13.334;2024-03-23T11:26:01;20.77;;;3.60;;
58820;SDS011;70670;52.476;13.334;2024-03-23T11:28:26;17.05;;;3.83;;
58820;SDS011;70670;52.476;13.334;2024-03-23T11:30:52;14.65;;;2.78;;
58820;SDS011;70670;52.476;13.334;2024-03-23T11:33:17;12.43;;;2.72;;
58820;SDS011;70670;52.476;13.334;2024-03-23T11:35:43;18.58;;;2.80;;
58820;SDS011;70670;52.476;13.334;2024-03-23T11:38:10;16.45;;;3.22;;
58820;SDS011;70670;52.476;13.334;2024-03-23T11:40:40;6.68;;;2.10;;
58820;SDS011;70670;52.476;13.334;2024-03-23T11:43:07;11.48;;;2.78;;
58820;SDS011;70670;52.476;13.334;2024-03-23T11:45:35;9.35;;;2.72;;
58820;SDS011;70670;52.476;13.334;2024-03-23T11:48:06;9.60;;;2.60;;
58820;SDS011;70670;52.476;13.334;2024-03-23T11:50:32;9.95;;;2.20;;
58820;SDS011;70670;52.476;13.334;2024-03-23T11:55:45;12.73;;;2.35;;
58820;SDS011;70670;52.476;13.334;2024-03-23T11:58:12;8.75;;;2.00;;
58820;SDS011;70670;52.476;13.334;2024-03-23T12:00:39;11.48;;;2.40;;
58820;SDS011;70670;52.476;13.334;2024-03-23T12:03:05;10.77;;;2.40;;
58820;SDS011;70670;52.476;13.334;2024-03-23T12:05:32;7.40;;;1.88;;
58820;SDS011;70670;52.476;13.334;2024-03-23T12:10:52;9.57;;;2.10;;
58820;SDS011;70670;52.476;13.334;2024-03-23T12:13:29;15.30;;;2.78;;
58820;SDS011;70670;52.476;13.334;2024-03-23T12:15:55;17.33;;;3.90;;
58820;SDS011;70670;52.476;13.334;2024-03-23T12:18:37;10.40;;;2.45;;
58820;SDS011;70670;52.476;13.334;2024-03-23T12:21:05;15.80;;;2.85;;
58820;SDS011;70670;52.476;13.334;2024-03-23T12:23:31;9.98;;;2.08;;
58820;SDS011;70670;52.476;13.334;2024-03-23T12:25:58;11.77;;;2.97;;
58820;SDS011;70670;52.476;13.334;2024-03-23T12:28:23;11.45;;;2.60;;
58820;SDS011;70670;52.476;13.334;2024-03-23T12:30:49;15.20;;;2.88;;
58820;SDS011;70670;52.476;13.334;2024-03-23T12:33:15;10.55;;;2.45;;
58820;SDS011;70670;52.476;13.334;2024-03-23T12:35:41;19.33;;;2.55;;
58820;SDS011;70670;52.476;13.334;2024-03-23T12:38:06;10.85;;;1.83;;
58820;SDS011;70670;52.476;13.334;2024-03-23T12:40:32;9.30;;;1.70;;
58820;SDS011;70670;52.476;13.334;2024-03-23T12:42:59;9.27;;;1.70;;
58820;SDS011;70670;52.476;13.334;2024-03-23T12:45:25;8.65;;;2.55;;
58820;SDS011;70670;52.476;13.334;2024-03-23T12:47:52;5.00;;;1.00;;
58820;SDS011;70670;52.476;13.334;2024-03-23T12:50:20;10.13;;;1.05;;
58820;SDS011;70670;52.476;13.334;2024-03-23T12:52:45;5.65;;;1.20;;
58820;SDS011;70670;52.476;13.334;2024-03-23T12:55:12;7.07;;;1.83;;
58820;SDS011;70670;52.476;13.334;2024-03-23T12:57:37;10.55;;;2.03;;
58820;SDS011;70670;52.476;13.334;2024-03-23T13:00:03;8.38;;;1.83;;
58820;SDS011;70670;52.476;13.334;2024-03-23T13:02:29;7.45;;;2.10;;
58820;SDS011;70670;52.476;13.334;2024-03-23T13:04:55;13.98;;;3.15;;
58820;SDS011;70670;52.476;13.334;2024-03-23T13:07:22;9.13;;;2.67;;
58820;SDS011;70670;52.476;13.334;2024-03-23T13:09:51;11.65;;;2.20;;
58820;SDS011;70670;52.476;13.334;2024-03-23T13:12:17;8.13;;;2.80;;
58820;SDS011;70670;52.476;13.334;2024-03-23T13:14:46;9.43;;;2.40;;
58820;SDS011;70670;52.476;13.334;2024-03-23T13:17:12;11.50;;;1.90;;
58820;SDS011;70670;52.476;13.334;2024-03-23T13:19:38;10.93;;;2.08;;
58820;SDS011;70670;52.476;13.334;2024-03-23T13:22:03;13.95;;;3.40;;
58820;SDS011;70670;52.476;13.334;2024-03-23T13:24:29;10.07;;;2.45;;
58820;SDS011;70670;52.476;13.334;2024-03-23T13:26:56;9.52;;;2.10;;
58820;SDS011;70670;52.476;13.334;2024-03-23T13:29:22;11.95;;;2.05;;
58820;SDS011;70670;52.476;13.334;2024-03-23T13:31:49;9.48;;;1.88;;
58820;SDS011;70670;52.476;13.334;2024-03-23T13:34:16;14.15;;;2.40;;
58820;SDS011;70670;52.476;13.334;2024-03-23T13:36:44;8.02;;;2.20;;
58820;SDS011;70670;52.476;13.334;2024-03-23T13:39:13;10.45;;;2.60;;
58820;SDS011;70670;52.476;13.334;2024-03-23T13:41:43;11.05;;;2.60;;
58820;SDS011;70670;52.476;13.334;2024-03-23T13:44:10;11.32;;;2.60;;
58820;SDS011;70670;52.476;13.334;2024-03-23T13:46:37;9.15;;;2.30;;
58820;SDS011;70670;52.476;13.334;2024-03-23T13:49:04;9.70;;;2.47;;
58820;SDS011;70670;52.476;13.334;2024-03-23T13:51:30;14.32;;;3.45;;
58820;SDS011;70670;52.476;13.334;2024-03-23T13:53:56;10.57;;;3.50;;
58820;SDS011;70670;52.476;13.334;2024-03-23T13:56:22;12.88;;;2.50;;
58820;SDS011;70670;52.476;13.334;2024-03-23T13:58:48;13.02;;;2.72;;
58820;SDS011;70670;52.476;13.334;2024-03-23T14:01:17;12.75;;;3.08;;
58820;SDS011;70670;52.476;13.334;2024-03-23T14:03:43;13.93;;;2.40;;
58820;SDS011;70670;52.476;13.334;2024-03-23T14:06:09;16.90;;;2.65;;
58820;SDS011;70670;52.476;13.334;2024-03-23T14:08:36;13.30;;;2.70;;
58820;SDS011;70670;52.476;13.334;2024-03-23T14:11:04;9.65;;;2.40;;
58820;SDS011;70670;52.476;13.334;2024-03-23T14:13:30;9.20;;;2.75;;
58820;SDS011;70670;52.476;13.334;2024-03-23T14:15:57;14.60;;;2.53;;
58820;SDS011;70670;52.476;13.334;2024-03-23T14:18:23;6.38;;;2.50;;
58820;SDS011;70670;52.476;13.334;2024-03-23T14:20:51;20.33;;;2.90;;
58820;SDS011;70670;52.476;13.334;2024-03-23T14:23:19;10.13;;;2.92;;
58820;SDS011;70670;52.476;13.334;2024-03-23T14:25:44;9.55;;;2.85;;
58820;SDS011;70670;52.476;13.334;2024-03-23T14:28:10;15.10;;;2.70;;
58820;SDS011;70670;52.476;13.334;2024-03-23T14:30:42;13.57;;;2.45;;
58820;SDS011;70670;52.476;13.334;2024-03-23T14:33:08;8.68;;;2.15;;
58820;SDS011;70670;52.476;13.334;2024-03-23T14:35:34;14.73;;;3.13;;
58820;SDS011;70670;52.476;13.334;2024-03-23T14:38:00;12.30;;;3.17;;
58820;SDS011;70670;52.476;13.334;2024-03-23T14:40:25;19.33;;;3.30;;
58820;SDS011;70670;52.476;13.334;2024-03-23T14:42:53;15.77;;;3.40;;
58820;SDS011;70670;52.476;13.334;2024-03-23T14:45:20;14.43;;;4.30;;
58820;SDS011;70670;52.476;13.334;2024-03-23T14:47:47;13.52;;;3.33;;
58820;SDS011;70670;52.476;13.334;2024-03-23T14:50:13;14.32;;;4.20;;
58820;SDS011;70670;52.476;13.334;2024-03-23T14:52:44;13.95;;;4.22;;
58820;SDS011;70670;52.476;13.334;2024-03-23T14:55:10;8.55;;;2.97;;
58820;SDS011;70670;52.476;13.334;2024-03-23T14:57:39;9.50;;;2.88;;
58820;SDS011;70670;52.476;13.334;2024-03-23T15:00:06;5.75;;;2.65;;
58820;SDS011;70670;52.476;13.334;2024-03-23T15:02:36;7.28;;;2.78;;
58820;SDS011;70670;52.476;13.334;2024-03-23T15:05:02;10.25;;;3.22;;
58820;SDS011;70670;52.476;13.334;2024-03-23T15:07:32;8.60;;;2.80;;
58820;SDS011;70670;52.476;13.334;2024-03-23T15:09:58;7.97;;;2.73;;
58820;SDS011;70670;52.476;13.334;2024-03-23T15:12:23;10.05;;;2.47;;
58820;SDS011;70670;52.476;13.334;2024-03-23T15:14:49;3.90;;;1.77;;
58820;SDS011;70670;52.476;13.334;2024-03-23T15:17:15;8.35;;;2.08;;
58820;SDS011;70670;52.476;13.334;2024-03-23T15:19:41;7.15;;;2.38;;
58820;SDS011;70670;52.476;13.334;2024-03-23T15:22:09;8.30;;;2.47;;
58820;SDS011;70670;52.476;13.334;2024-03-23T15:24:35;5.25;;;2.10;;
58820;SDS011;70670;52.476;13.334;2024-03-23T15:27:04;4.25;;;1.70;;
58820;SDS011;70670;52.476;13.334;2024-03-23T15:29:30;4.32;;;1.65;;
58820;SDS011;70670;52.476;13.334;2024-03-23T15:31:56;9.57;;;2.03;;
58820;SDS011;70670;52.476;13.334;2024-03-23T15:34:22;4.40;;;2.08;;